Terminal Aerodrome Forecast
Issued by NWS

Home | Current Version | Previous Version | Text Only | Print | Product List | Glossary On
Versions: 1 2 3 4 5 6 7 8 9 10 11 12 13 14 15 16 17 18 19 20 21 22 23 24 25 26 27 28 29
000
FTAK31 PANC 272328
TAFADL
TAF
PADL 272328Z 2800/2824 12011KT P6SM VCSH SCT025
      TEMPO 2800/2803 12014G24KT
     FM280600 04011KT P6SM SCT080
     FM280900 02012G22KT P6SM SCT060 BKN100 WS020/09030KT
     FM281500 02015G25KT P6SM VCSH BKN060=

USA.gov is the U.S. government's official web portal to all federal, state and local government web resources and services.